sensor_id;sensor_type;location;lat;lon;timestamp;pressure;altitude;pressure_sealevel;temperature;humidity
55759;BME280;41678;52.126;20.664;2023-04-29T00:01:28;100266.56;;;6.49;63.63
55759;BME280;41678;52.126;20.664;2023-04-29T00:06:47;100263.91;;;6.48;63.64
55759;BME280;41678;52.126;20.664;2023-04-29T00:12:07;100266.50;;;6.42;63.47
55759;BME280;41678;52.126;20.664;2023-04-29T00:17:28;100266.53;;;6.48;63.86
55759;BME280;41678;52.126;20.664;2023-04-29T00:22:47;100266.50;;;6.42;64.17
55759;BME280;41678;52.126;20.664;2023-04-29T00:28:07;100264.75;;;6.41;63.63
55759;BME280;41678;52.126;20.664;2023-04-29T00:33:27;100259.53;;;6.41;63.74
55759;BME280;41678;52.126;20.664;2023-04-29T00:38:46;100257.78;;;6.40;63.87
55759;BME280;41678;52.126;20.664;2023-04-29T00:44:06;100249.06;;;6.37;64.09
55759;BME280;41678;52.126;20.664;2023-04-29T00:49:26;100244.66;;;6.36;64.51
55759;BME280;41678;52.126;20.664;2023-04-29T00:54:46;100241.19;;;6.36;64.17
55759;BME280;41678;52.126;20.664;2023-04-29T01:00:06;100248.16;;;6.32;64.22
55759;BME280;41678;52.126;20.664;2023-04-29T01:05:28;100254.25;;;6.31;64.59
55759;BME280;41678;52.126;20.664;2023-04-29T01:10:52;100250.75;;;6.29;63.77
55759;BME280;41678;52.126;20.664;2023-04-29T01:16:27;100252.50;;;6.30;63.88
55759;BME280;41678;52.126;20.664;2023-04-29T01:21:50;100249.00;;;6.28;63.71
55759;BME280;41678;52.126;20.664;2023-04-29T01:38:21;100243.69;;;6.16;64.54
55759;BME280;41678;52.126;20.664;2023-04-29T01:43:43;100247.19;;;6.18;64.32
55759;BME280;41678;52.126;20.664;2023-04-29T01:49:12;100252.38;;;6.13;64.84
55759;BME280;41678;52.126;20.664;2023-04-29T01:54:32;100246.25;;;6.08;63.93
55759;BME280;41678;52.126;20.664;2023-04-29T01:59:56;100247.13;;;6.07;64.16
55759;BME280;41678;52.126;20.664;2023-04-29T02:05:37;100244.50;;;6.07;64.33
55759;BME280;41678;52.126;20.664;2023-04-29T02:10:58;100241.88;;;6.05;64.71
55759;BME280;41678;52.126;20.664;2023-04-29T02:16:30;100243.56;;;6.00;64.34
55759;BME280;41678;52.126;20.664;2023-04-29T02:21:54;100235.69;;;5.95;64.48
55759;BME280;41678;52.126;20.664;2023-04-29T02:27:14;100232.22;;;5.95;64.49
55759;BME280;41678;52.126;20.664;2023-04-29T02:32:33;100227.84;;;5.92;64.53
55759;BME280;41678;52.126;20.664;2023-04-29T02:37:53;100232.22;;;5.95;64.50
55759;BME280;41678;52.126;20.664;2023-04-29T02:43:13;100220.88;;;5.93;64.27
55759;BME280;41678;52.126;20.664;2023-04-29T02:48:32;100220.84;;;5.90;64.83
55759;BME280;41678;52.126;20.664;2023-04-29T02:53:52;100231.38;;;5.99;64.42
55759;BME280;41678;52.126;20.664;2023-04-29T02:59:12;100224.31;;;5.89;64.69
55759;BME280;41678;52.126;20.664;2023-04-29T03:04:31;100219.09;;;5.89;64.48
55759;BME280;41678;52.126;20.664;2023-04-29T03:09:51;100217.34;;;5.85;64.74
55759;BME280;41678;52.126;20.664;2023-04-29T03:15:12;100211.22;;;5.79;65.16
55759;BME280;41678;52.126;20.664;2023-04-29T03:20:33;100210.34;;;5.80;64.69
55759;BME280;41678;52.126;20.664;2023-04-29T03:25:55;100217.25;;;5.75;65.80
55759;BME280;41678;52.126;20.664;2023-04-29T03:31:16;100212.91;;;5.74;65.36
55759;BME280;41678;52.126;20.664;2023-04-29T03:36:36;100208.53;;;5.73;65.64
55759;BME280;41678;52.126;20.664;2023-04-29T03:41:59;100208.53;;;5.70;65.64
55759;BME280;41678;52.126;20.664;2023-04-29T03:47:20;100208.50;;;5.67;65.17
55759;BME280;41678;52.126;20.664;2023-04-29T03:52:40;100212.03;;;5.72;65.36
55759;BME280;41678;52.126;20.664;2023-04-29T03:58:04;100203.28;;;5.67;65.54
55759;BME280;41678;52.126;20.664;2023-04-29T04:03:25;100201.56;;;5.69;65.93
55759;BME280;41678;52.126;20.664;2023-04-29T04:08:48;100193.75;;;5.71;65.76
55759;BME280;41678;52.126;20.664;2023-04-29T04:14:12;100191.09;;;5.67;66.10
55759;BME280;41678;52.126;20.664;2023-04-29T04:19:32;100182.38;;;5.68;66.38
55759;BME280;41678;52.126;20.664;2023-04-29T04:24:55;100189.44;;;5.77;66.29
55759;BME280;41678;52.126;20.664;2023-04-29T04:30:15;100192.91;;;5.78;66.63
55759;BME280;41678;52.126;20.664;2023-04-29T04:35:35;100199.97;;;5.93;66.22
55759;BME280;41678;52.126;20.664;2023-04-29T04:40:55;100199.03;;;5.85;66.67
55759;BME280;41678;52.126;20.664;2023-04-29T04:46:24;100203.50;;;5.98;67.02
55759;BME280;41678;52.126;20.664;2023-04-29T04:52:02;100209.56;;;5.95;66.58
55759;BME280;41678;52.126;20.664;2023-04-29T04:57:22;100202.69;;;6.04;67.39
55759;BME280;41678;52.126;20.664;2023-04-29T05:02:42;100203.59;;;6.11;67.05
55759;BME280;41678;52.126;20.664;2023-04-29T05:08:02;100208.00;;;6.16;67.30
55759;BME280;41678;52.126;20.664;2023-04-29T05:13:32;100198.44;;;6.26;66.74
55759;BME280;41678;52.126;20.664;2023-04-29T05:18:53;100202.00;;;6.37;66.77
55759;BME280;41678;52.126;20.664;2023-04-29T05:24:16;100199.41;;;6.45;67.37
55759;BME280;41678;52.126;20.664;2023-04-29T05:29:37;100201.19;;;6.57;66.80
55759;BME280;41678;52.126;20.664;2023-04-29T05:34:58;100195.13;;;6.68;66.91
55759;BME280;41678;52.126;20.664;2023-04-29T05:40:18;100189.94;;;6.83;66.64
55759;BME280;41678;52.126;20.664;2023-04-29T05:45:38;100186.44;;;6.93;67.10
55759;BME280;41678;52.126;20.664;2023-04-29T05:50:57;100190.84;;;7.13;66.96
55759;BME280;41678;52.126;20.664;2023-04-29T05:56:17;100189.97;;;7.33;67.05
55759;BME280;41678;52.126;20.664;2023-04-29T06:01:37;100189.09;;;7.48;66.79
55759;BME280;41678;52.126;20.664;2023-04-29T06:06:58;100180.34;;;7.69;66.63
55759;BME280;41678;52.126;20.664;2023-04-29T06:13:10;100191.66;;;7.91;66.59
55759;BME280;41678;52.126;20.664;2023-04-29T06:18:30;100181.09;;;8.18;66.35
55759;BME280;41678;52.126;20.664;2023-04-29T06:23:51;100171.44;;;8.34;66.17
55759;BME280;41678;52.126;20.664;2023-04-29T06:29:11;100158.22;;;8.48;66.17
55759;BME280;41678;52.126;20.664;2023-04-29T06:34:31;100173.91;;;8.70;66.24
55759;BME280;41678;52.126;20.664;2023-04-29T06:40:25;100170.28;;;8.96;65.95
55759;BME280;41678;52.126;20.664;2023-04-29T06:46:00;100182.34;;;9.17;65.57
55759;BME280;41678;52.126;20.664;2023-04-29T06:51:36;100180.34;;;9.47;65.15
55759;BME280;41678;52.126;20.664;2023-04-29T06:56:56;100175.00;;;9.61;65.22
55759;BME280;41678;52.126;20.664;2023-04-29T07:02:16;100171.28;;;9.81;65.39
55759;BME280;41678;52.126;20.664;2023-04-29T07:07:36;100168.44;;;10.01;65.52
55759;BME280;41678;52.126;20.664;2023-04-29T07:12:56;100169.03;;;10.26;64.88
55759;BME280;41678;52.126;20.664;2023-04-29T07:18:16;100169.59;;;10.55;64.81
55759;BME280;41678;52.126;20.664;2023-04-29T07:23:36;100157.81;;;10.81;64.48
55759;BME280;41678;52.126;20.664;2023-04-29T07:28:55;100166.19;;;11.09;64.52
55759;BME280;41678;52.126;20.664;2023-04-29T07:34:17;100164.09;;;11.28;64.35
55759;BME280;41678;52.126;20.664;2023-04-29T07:39:39;100169.75;;;11.58;63.38
55759;BME280;41678;52.126;20.664;2023-04-29T07:45:01;100165.78;;;11.83;63.84
55759;BME280;41678;52.126;20.664;2023-04-29T07:50:20;100167.16;;;12.06;63.71
55759;BME280;41678;52.126;20.664;2023-04-29T07:55:41;100178.72;;;12.44;60.87
55759;BME280;41678;52.126;20.664;2023-04-29T08:01:08;100179.91;;;12.70;60.42
55759;BME280;41678;52.126;20.664;2023-04-29T08:06:29;100171.91;;;12.73;61.02
55759;BME280;41678;52.126;20.664;2023-04-29T08:11:48;100176.28;;;12.75;60.98
55759;BME280;41678;52.126;20.664;2023-04-29T08:17:08;100178.00;;;12.78;61.32
55759;BME280;41678;52.126;20.664;2023-04-29T08:22:28;100178.47;;;12.96;61.02
55759;BME280;41678;52.126;20.664;2023-04-29T08:27:48;100161.38;;;13.11;61.76
55759;BME280;41678;52.126;20.664;2023-04-29T08:33:09;100171.31;;;13.37;61.62
55759;BME280;41678;52.126;20.664;2023-04-29T08:38:29;100169.88;;;13.60;59.68
55759;BME280;41678;52.126;20.664;2023-04-29T08:43:49;100169.41;;;13.79;60.10
55759;BME280;41678;52.126;20.664;2023-04-29T08:49:10;100159.25;;;13.96;60.12
55759;BME280;41678;52.126;20.664;2023-04-29T08:54:31;100146.53;;;14.09;59.52
55759;BME280;41678;52.126;20.664;2023-04-29T08:59:51;100148.84;;;14.20;59.49
55759;BME280;41678;52.126;20.664;2023-04-29T09:05:11;100148.41;;;14.36;58.02
55759;BME280;41678;52.126;20.664;2023-04-29T09:10:31;100129.75;;;14.40;59.15
55759;BME280;41678;52.126;20.664;2023-04-29T09:15:52;100131.88;;;14.57;59.45
55759;BME280;41678;52.126;20.664;2023-04-29T09:21:23;100142.03;;;14.73;57.90
55759;BME280;41678;52.126;20.664;2023-04-29T09:26:43;100135.63;;;14.80;58.35
55759;BME280;41678;52.126;20.664;2023-04-29T09:32:18;100133.28;;;14.98;57.56
55759;BME280;41678;52.126;20.664;2023-04-29T09:37:38;100128.56;;;15.08;57.95
55759;BME280;41678;52.126;20.664;2023-04-29T09:43:00;100126.16;;;15.27;57.97
55759;BME280;41678;52.126;20.664;2023-04-29T09:48:20;100122.28;;;15.37;57.53
55759;BME280;41678;52.126;20.664;2023-04-29T09:53:39;100113.09;;;15.48;56.80
55759;BME280;41678;52.126;20.664;2023-04-29T09:59:06;100108.88;;;15.67;56.98
55759;BME280;41678;52.126;20.664;2023-04-29T10:04:27;100112.97;;;15.76;57.00
55759;BME280;41678;52.126;20.664;2023-04-29T10:09:48;100096.81;;;15.82;57.51
55759;BME280;41678;52.126;20.664;2023-04-29T10:20:45;100091.75;;;16.02;57.96
55759;BME280;41678;52.126;20.664;2023-04-29T10:26:06;100082.63;;;16.09;55.83
55759;BME280;41678;52.126;20.664;2023-04-29T10:31:27;100088.66;;;16.12;55.50
55759;BME280;41678;52.126;20.664;2023-04-29T10:36:46;100074.38;;;16.17;55.38
55759;BME280;41678;52.126;20.664;2023-04-29T10:42:18;100075.72;;;16.27;54.48
55759;BME280;41678;52.126;20.664;2023-04-29T10:47:57;100088.72;;;16.35;53.59
55759;BME280;41678;52.126;20.664;2023-04-29T10:53:26;100078.50;;;16.48;54.79
55759;BME280;41678;52.126;20.664;2023-04-29T10:58:45;100075.28;;;16.62;53.95
55759;BME280;41678;52.126;20.664;2023-04-29T11:04:05;100080.22;;;16.71;53.91
55759;BME280;41678;52.126;20.664;2023-04-29T11:09:34;100073.91;;;16.74;54.70
55759;BME280;41678;52.126;20.664;2023-04-29T11:14:57;100075.63;;;16.75;54.19
55759;BME280;41678;52.126;20.664;2023-04-29T11:20:23;100077.38;;;16.76;53.14
55759;BME280;41678;52.126;20.664;2023-04-29T11:25:43;100070.25;;;16.76;53.34
55759;BME280;41678;52.126;20.664;2023-04-29T11:31:03;100070.94;;;16.81;52.96
55759;BME280;41678;52.126;20.664;2023-04-29T11:36:23;100058.47;;;16.83;52.63
55759;BME280;41678;52.126;20.664;2023-04-29T11:41:42;100055.50;;;16.91;53.29
55759;BME280;41678;52.126;20.664;2023-04-29T11:47:06;100048.09;;;16.98;54.33
55759;BME280;41678;52.126;20.664;2023-04-29T11:52:25;100056.38;;;17.12;55.07
55759;BME280;41678;52.126;20.664;2023-04-29T11:57:48;100049.41;;;17.10;53.40
55759;BME280;41678;52.126;20.664;2023-04-29T12:03:20;100037.72;;;17.14;53.82
55759;BME280;41678;52.126;20.664;2023-04-29T12:08:40;100027.63;;;17.22;54.90
55759;BME280;41678;52.126;20.664;2023-04-29T12:14:00;100031.06;;;17.24;53.51
55759;BME280;41678;52.126;20.664;2023-04-29T12:19:22;100028.31;;;17.26;53.49
55759;BME280;41678;52.126;20.664;2023-04-29T12:24:43;100034.84;;;17.39;53.58
55759;BME280;41678;52.126;20.664;2023-04-29T12:30:06;100029.25;;;17.46;54.12
55759;BME280;41678;52.126;20.664;2023-04-29T12:35:27;100033.44;;;17.31;52.36
55759;BME280;41678;52.126;20.664;2023-04-29T12:40:47;100044.84;;;17.34;53.31
55759;BME280;41678;52.126;20.664;2023-04-29T12:46:09;100039.44;;;17.36;52.61
55759;BME280;41678;52.126;20.664;2023-04-29T12:51:32;100026.72;;;17.42;53.67
55759;BME280;41678;52.126;20.664;2023-04-29T12:56:53;100022.06;;;17.48;54.75
55759;BME280;41678;52.126;20.664;2023-04-29T13:02:14;100007.75;;;17.50;54.37
55759;BME280;41678;52.126;20.664;2023-04-29T13:07:34;100015.72;;;17.50;52.85
55759;BME280;41678;52.126;20.664;2023-04-29T13:12:54;100004.28;;;17.48;53.41
55759;BME280;41678;52.126;20.664;2023-04-29T13:18:14;100001.13;;;17.40;53.02
55759;BME280;41678;52.126;20.664;2023-04-29T13:23:34;99996.94;;;17.34;52.44
55759;BME280;41678;52.126;20.664;2023-04-29T13:28:53;99996.16;;;17.32;53.48
55759;BME280;41678;52.126;20.664;2023-04-29T13:34:12;99994.53;;;17.28;52.21
55759;BME280;41678;52.126;20.664;2023-04-29T13:39:32;99998.41;;;17.21;53.01
55759;BME280;41678;52.126;20.664;2023-04-29T13:44:52;100004.13;;;17.11;52.33
55759;BME280;41678;52.126;20.664;2023-04-29T13:50:15;100000.53;;;17.12;53.34
55759;BME280;41678;52.126;20.664;2023-04-29T13:55:35;99996.47;;;17.04;53.33
55759;BME280;41678;52.126;20.664;2023-04-29T14:00:54;99988.56;;;17.02;53.03
55759;BME280;41678;52.126;20.664;2023-04-29T14:06:14;99977.66;;;17.08;54.22
55759;BME280;41678;52.126;20.664;2023-04-29T14:11:34;99984.84;;;17.06;54.46
55759;BME280;41678;52.126;20.664;2023-04-29T14:16:55;99990.03;;;17.09;54.68
55759;BME280;41678;52.126;20.664;2023-04-29T14:22:14;99983.97;;;17.06;54.90
55759;BME280;41678;52.126;20.664;2023-04-29T14:27:33;99980.41;;;17.07;55.07
55759;BME280;41678;52.126;20.664;2023-04-29T14:32:55;99983.06;;;17.07;54.79
55759;BME280;41678;52.126;20.664;2023-04-29T14:38:15;99979.88;;;16.97;54.50
55759;BME280;41678;52.126;20.664;2023-04-29T14:43:35;99978.94;;;16.98;55.09
55759;BME280;41678;52.126;20.664;2023-04-29T14:48:55;99975.50;;;16.96;54.79
55759;BME280;41678;52.126;20.664;2023-04-29T14:54:47;99972.22;;;16.89;53.83
55759;BME280;41678;52.126;20.664;2023-04-29T15:00:07;99971.25;;;16.92;55.41
55759;BME280;41678;52.126;20.664;2023-04-29T15:05:27;99966.13;;;16.87;55.08
55759;BME280;41678;52.126;20.664;2023-04-29T15:10:48;99978.69;;;16.83;54.85
55759;BME280;41678;52.126;20.664;2023-04-29T15:16:51;99966.44;;;16.79;54.95
55759;BME280;41678;52.126;20.664;2023-04-29T15:22:10;99976.03;;;16.83;55.08
55759;BME280;41678;52.126;20.664;2023-04-29T15:27:32;99979.94;;;16.75;54.94
55759;BME280;41678;52.126;20.664;2023-04-29T15:32:55;99971.28;;;16.69;55.06
55759;BME280;41678;52.126;20.664;2023-04-29T15:38:15;99979.53;;;16.63;54.04
55759;BME280;41678;52.126;20.664;2023-04-29T15:43:35;99983.03;;;16.64;55.00
55759;BME280;41678;52.126;20.664;2023-04-29T15:48:55;99978.84;;;16.58;55.07
55759;BME280;41678;52.126;20.664;2023-04-29T15:54:15;99969.16;;;16.57;55.32
55759;BME280;41678;52.126;20.664;2023-04-29T15:59:35;99968.16;;;16.60;55.88
55759;BME280;41678;52.126;20.664;2023-04-29T16:04:54;99982.13;;;16.65;56.27
55759;BME280;41678;52.126;20.664;2023-04-29T16:10:14;99977.72;;;16.64;56.57
55759;BME280;41678;52.126;20.664;2023-04-29T16:15:34;99977.91;;;16.59;57.09
55759;BME280;41678;52.126;20.664;2023-04-29T16:20:54;99979.28;;;16.47;56.74
55759;BME280;41678;52.126;20.664;2023-04-29T16:26:14;99991.78;;;16.45;57.65
55759;BME280;41678;52.126;20.664;2023-04-29T16:31:34;99992.09;;;16.37;57.83
55759;BME280;41678;52.126;20.664;2023-04-29T16:36:54;99993.06;;;16.35;57.69
55759;BME280;41678;52.126;20.664;2023-04-29T16:42:13;99999.41;;;16.32;57.85
55759;BME280;41678;52.126;20.664;2023-04-29T16:47:33;99999.75;;;16.23;57.76
55759;BME280;41678;52.126;20.664;2023-04-29T16:52:55;100003.69;;;16.12;57.83
55759;BME280;41678;52.126;20.664;2023-04-29T16:58:14;100014.06;;;15.96;57.39
55759;BME280;41678;52.126;20.664;2023-04-29T17:03:35;100011.53;;;15.93;58.07
55759;BME280;41678;52.126;20.664;2023-04-29T17:08:55;100011.66;;;15.89;58.35
55759;BME280;41678;52.126;20.664;2023-04-29T17:14:15;100007.31;;;15.86;58.54
55759;BME280;41678;52.126;20.664;2023-04-29T17:19:34;100009.63;;;15.71;58.11
55759;BME280;41678;52.126;20.664;2023-04-29T17:24:54;100011.59;;;15.66;58.70
55759;BME280;41678;52.126;20.664;2023-04-29T17:30:14;100011.81;;;15.60;58.94
55759;BME280;41678;52.126;20.664;2023-04-29T17:35:34;100020.94;;;15.53;58.87
55759;BME280;41678;52.126;20.664;2023-04-29T17:40:53;100017.78;;;15.41;58.80
55759;BME280;41678;52.126;20.664;2023-04-29T17:46:14;100011.91;;;15.33;59.26
55759;BME280;41678;52.126;20.664;2023-04-29T17:51:33;100020.72;;;15.34;59.16
55759;BME280;41678;52.126;20.664;2023-04-29T17:56:53;100009.59;;;15.24;59.55
55759;BME280;41678;52.126;20.664;2023-04-29T18:02:13;100020.16;;;15.25;59.72
55759;BME280;41678;52.126;20.664;2023-04-29T18:07:32;100015.91;;;15.20;59.87
55759;BME280;41678;52.126;20.664;2023-04-29T18:12:51;100019.56;;;15.15;60.23
55759;BME280;41678;52.126;20.664;2023-04-29T18:18:11;100023.41;;;15.07;60.37
55759;BME280;41678;52.126;20.664;2023-04-29T18:23:30;100021.03;;;14.99;60.74
55759;BME280;41678;52.126;20.664;2023-04-29T18:28:50;100022.97;;;14.94;60.60
55759;BME280;41678;52.126;20.664;2023-04-29T18:34:09;100026.91;;;14.82;60.79
55759;BME280;41678;52.126;20.664;2023-04-29T18:39:29;100034.13;;;14.77;61.01
55759;BME280;41678;52.126;20.664;2023-04-29T18:44:49;100032.63;;;14.68;61.16
55759;BME280;41678;52.126;20.664;2023-04-29T18:50:09;100035.41;;;14.63;61.23
55759;BME280;41678;52.126;20.664;2023-04-29T18:55:29;100045.38;;;14.56;61.54
55759;BME280;41678;52.126;20.664;2023-04-29T19:00:48;100036.78;;;14.48;61.44
55759;BME280;41678;52.126;20.664;2023-04-29T19:06:08;100040.47;;;14.44;61.49
55759;BME280;41678;52.126;20.664;2023-04-29T19:11:27;100043.28;;;14.38;61.43
55759;BME280;41678;52.126;20.664;2023-04-29T19:16:47;100039.00;;;14.34;61.44
55759;BME280;41678;52.126;20.664;2023-04-29T19:22:07;100046.25;;;14.28;61.98
55759;BME280;41678;52.126;20.664;2023-04-29T19:27:27;100045.56;;;14.22;62.01
55759;BME280;41678;52.126;20.664;2023-04-29T19:32:47;100036.00;;;14.16;61.86
55759;BME280;41678;52.126;20.664;2023-04-29T19:38:06;100036.97;;;14.13;62.15
55759;BME280;41678;52.126;20.664;2023-04-29T19:43:25;100038.91;;;14.08;62.33
55759;BME280;41678;52.126;20.664;2023-04-29T19:48:45;100049.63;;;14.03;62.75
55759;BME280;41678;52.126;20.664;2023-04-29T19:54:04;100048.94;;;13.97;62.76
55759;BME280;41678;52.126;20.664;2023-04-29T19:59:23;100056.09;;;13.93;63.14
55759;BME280;41678;52.126;20.664;2023-04-29T20:04:43;100061.47;;;13.90;62.38
55759;BME280;41678;52.126;20.664;2023-04-29T20:10:04;100058.94;;;13.87;62.32
55759;BME280;41678;52.126;20.664;2023-04-29T20:15:24;100059.06;;;13.82;62.23
55759;BME280;41678;52.126;20.664;2023-04-29T20:20:44;100061.75;;;13.81;62.76
55759;BME280;41678;52.126;20.664;2023-04-29T20:26:04;100051.44;;;13.71;62.27
55759;BME280;41678;52.126;20.664;2023-04-29T20:31:24;100057.63;;;13.70;62.70
55759;BME280;41678;52.126;20.664;2023-04-29T20:36:44;100057.66;;;13.69;61.81
55759;BME280;41678;52.126;20.664;2023-04-29T20:42:04;100050.72;;;13.65;62.74
55759;BME280;41678;52.126;20.664;2023-04-29T20:47:24;100051.75;;;13.59;62.72
55759;BME280;41678;52.126;20.664;2023-04-29T20:52:44;100043.91;;;13.56;62.77
55759;BME280;41678;52.126;20.664;2023-04-29T20:58:05;100050.22;;;13.52;63.49
55759;BME280;41678;52.126;20.664;2023-04-29T21:03:25;100052.97;;;13.47;63.02
55759;BME280;41678;52.126;20.664;2023-04-29T21:08:45;100057.47;;;13.43;63.03
55759;BME280;41678;52.126;20.664;2023-04-29T21:14:05;100055.81;;;13.39;62.76
55759;BME280;41678;52.126;20.664;2023-04-29T21:19:24;100056.75;;;13.37;63.03
55759;BME280;41678;52.126;20.664;2023-04-29T21:24:44;100053.38;;;13.30;63.14
55759;BME280;41678;52.126;20.664;2023-04-29T21:30:04;100054.34;;;13.27;63.02
55759;BME280;41678;52.126;20.664;2023-04-29T21:35:25;100049.13;;;13.24;63.44
55759;BME280;41678;52.126;20.664;2023-04-29T21:40:46;100057.94;;;13.25;63.10
55759;BME280;41678;52.126;20.664;2023-04-29T21:46:06;100054.47;;;13.23;63.03
55759;BME280;41678;52.126;20.664;2023-04-29T21:51:27;100056.34;;;13.17;62.86
55759;BME280;41678;52.126;20.664;2023-04-29T21:56:46;100055.63;;;13.12;63.06
55759;BME280;41678;52.126;20.664;2023-04-29T22:02:06;100066.22;;;13.11;62.87
55759;BME280;41678;52.126;20.664;2023-04-29T22:07:41;100063.53;;;13.12;63.14
55759;BME280;41678;52.126;20.664;2023-04-29T22:13:01;100078.47;;;13.15;63.30
55759;BME280;41678;52.126;20.664;2023-04-29T22:18:20;100084.59;;;13.15;63.88
55759;BME280;41678;52.126;20.664;2023-04-29T22:23:40;100086.50;;;13.10;64.02
55759;BME280;41678;52.126;20.664;2023-04-29T22:29:00;100084.88;;;13.04;64.23
55759;BME280;41678;52.126;20.664;2023-04-29T22:34:19;100079.00;;;12.93;64.18
55759;BME280;41678;52.126;20.664;2023-04-29T22:39:39;100075.59;;;12.88;64.60
55759;BME280;41678;52.126;20.664;2023-04-29T22:44:59;100073.06;;;12.83;64.55
55759;BME280;41678;52.126;20.664;2023-04-29T22:50:18;100074.81;;;12.84;64.35
55759;BME280;41678;52.126;20.664;2023-04-29T22:55:38;100073.16;;;12.80;64.96
55759;BME280;41678;52.126;20.664;2023-04-29T23:00:58;100076.78;;;12.76;65.22
55759;BME280;41678;52.126;20.664;2023-04-29T23:06:17;100067.88;;;12.79;65.13
55759;BME280;41678;52.126;20.664;2023-04-29T23:11:37;100071.34;;;12.82;65.16
55759;BME280;41678;52.126;20.664;2023-04-29T23:16:56;100071.53;;;12.73;66.00
55759;BME280;41678;52.126;20.664;2023-04-29T23:22:16;100057.38;;;12.77;65.76
55759;BME280;41678;52.126;20.664;2023-04-29T23:27:36;100068.03;;;12.72;66.14
55759;BME280;41678;52.126;20.664;2023-04-29T23:32:56;100068.22;;;12.65;65.90
55759;BME280;41678;52.126;20.664;2023-04-29T23:38:16;100072.53;;;12.69;65.92
55759;BME280;41678;52.126;20.664;2023-04-29T23:43:36;100067.47;;;12.59;66.50
55759;BME280;41678;52.126;20.664;2023-04-29T23:48:56;100073.50;;;12.65;66.59
55759;BME280;41678;52.126;20.664;2023-04-29T23:54:16;100072.75;;;12.59;66.66
55759;BME280;41678;52.126;20.664;2023-04-29T23:59:35;100073.78;;;12.52;66.88
